sensor_id;sensor_type;location;lat;lon;timestamp;P1;durP1;ratioP1;P2;durP2;ratioP2
75997;SDS011;64685;48.762;44.822;2023-05-02T00:00:50;5.95;;;2.00;;
75997;SDS011;64685;48.762;44.822;2023-05-02T00:05:52;3.58;;;1.27;;
75997;SDS011;64685;48.762;44.822;2023-05-02T00:10:55;3.65;;;1.65;;
75997;SDS011;64685;48.762;44.822;2023-05-02T00:15:57;3.38;;;1.60;;
75997;SDS011;64685;48.762;44.822;2023-05-02T00:21:00;4.35;;;1.55;;
75997;SDS011;64685;48.762;44.822;2023-05-02T00:26:03;1.70;;;1.00;;
75997;SDS011;64685;48.762;44.822;2023-05-02T00:31:13;4.47;;;1.50;;
75997;SDS011;64685;48.762;44.822;2023-05-02T00:36:16;4.72;;;1.20;;
75997;SDS011;64685;48.762;44.822;2023-05-02T00:41:20;3.78;;;1.58;;
75997;SDS011;64685;48.762;44.822;2023-05-02T00:46:23;2.75;;;1.17;;
75997;SDS011;64685;48.762;44.822;2023-05-02T00:51:25;3.35;;;1.20;;
75997;SDS011;64685;48.762;44.822;2023-05-02T00:56:28;3.22;;;1.55;;
75997;SDS011;64685;48.762;44.822;2023-05-02T01:17:17;2.42;;;1.13;;
75997;SDS011;64685;48.762;44.822;2023-05-02T01:22:25;3.67;;;1.30;;
75997;SDS011;64685;48.762;44.822;2023-05-02T01:33:08;2.45;;;1.08;;
75997;SDS011;64685;48.762;44.822;2023-05-02T01:38:14;5.40;;;1.55;;
75997;SDS011;64685;48.762;44.822;2023-05-02T01:43:20;6.75;;;1.70;;
75997;SDS011;64685;48.762;44.822;2023-05-02T01:48:23;3.70;;;1.40;;
75997;SDS011;64685;48.762;44.822;2023-05-02T01:53:29;4.53;;;1.63;;
75997;SDS011;64685;48.762;44.822;2023-05-02T01:58:35;2.67;;;1.55;;
75997;SDS011;64685;48.762;44.822;2023-05-02T02:03:39;4.60;;;1.70;;
75997;SDS011;64685;48.762;44.822;2023-05-02T02:08:42;5.57;;;1.65;;
75997;SDS011;64685;48.762;44.822;2023-05-02T02:13:49;5.70;;;1.80;;
75997;SDS011;64685;48.762;44.822;2023-05-02T02:19:20;6.28;;;1.77;;
75997;SDS011;64685;48.762;44.822;2023-05-02T02:29:28;3.47;;;1.83;;
75997;SDS011;64685;48.762;44.822;2023-05-02T02:34:30;4.88;;;1.55;;
75997;SDS011;64685;48.762;44.822;2023-05-02T02:49:48;8.20;;;1.90;;
75997;SDS011;64685;48.762;44.822;2023-05-02T02:54:56;5.43;;;1.75;;
75997;SDS011;64685;48.762;44.822;2023-05-02T03:00:13;3.60;;;1.38;;
75997;SDS011;64685;48.762;44.822;2023-05-02T03:05:20;3.60;;;1.50;;
75997;SDS011;64685;48.762;44.822;2023-05-02T03:10:24;5.63;;;1.60;;
75997;SDS011;64685;48.762;44.822;2023-05-02T03:20:55;5.07;;;1.80;;
75997;SDS011;64685;48.762;44.822;2023-05-02T03:25:58;5.28;;;1.88;;
75997;SDS011;64685;48.762;44.822;2023-05-02T03:31:01;3.47;;;1.50;;
75997;SDS011;64685;48.762;44.822;2023-05-02T03:36:09;3.72;;;1.42;;
75997;SDS011;64685;48.762;44.822;2023-05-02T03:41:13;9.70;;;1.88;;
75997;SDS011;64685;48.762;44.822;2023-05-02T03:46:17;3.78;;;1.83;;
75997;SDS011;64685;48.762;44.822;2023-05-02T03:51:20;6.43;;;1.60;;
75997;SDS011;64685;48.762;44.822;2023-05-02T03:56:26;5.15;;;1.38;;
75997;SDS011;64685;48.762;44.822;2023-05-02T04:01:41;5.85;;;1.83;;
75997;SDS011;64685;48.762;44.822;2023-05-02T04:06:46;4.28;;;1.80;;
75997;SDS011;64685;48.762;44.822;2023-05-02T04:11:50;6.35;;;1.52;;
75997;SDS011;64685;48.762;44.822;2023-05-02T04:16:53;3.85;;;1.35;;
75997;SDS011;64685;48.762;44.822;2023-05-02T04:22:06;4.93;;;1.45;;
75997;SDS011;64685;48.762;44.822;2023-05-02T04:27:13;4.43;;;1.52;;
75997;SDS011;64685;48.762;44.822;2023-05-02T04:32:17;4.30;;;1.30;;
75997;SDS011;64685;48.762;44.822;2023-05-02T04:37:21;4.38;;;1.33;;
75997;SDS011;64685;48.762;44.822;2023-05-02T04:42:24;7.57;;;1.42;;
75997;SDS011;64685;48.762;44.822;2023-05-02T04:47:47;3.38;;;1.15;;
75997;SDS011;64685;48.762;44.822;2023-05-02T04:52:50;5.93;;;1.40;;
75997;SDS011;64685;48.762;44.822;2023-05-02T04:57:53;4.85;;;1.77;;
75997;SDS011;64685;48.762;44.822;2023-05-02T05:02:56;4.85;;;1.40;;
75997;SDS011;64685;48.762;44.822;2023-05-02T05:08:02;5.45;;;1.80;;
75997;SDS011;64685;48.762;44.822;2023-05-02T05:13:08;3.90;;;1.75;;
75997;SDS011;64685;48.762;44.822;2023-05-02T05:18:11;5.32;;;1.50;;
75997;SDS011;64685;48.762;44.822;2023-05-02T05:23:13;5.47;;;1.75;;
75997;SDS011;64685;48.762;44.822;2023-05-02T05:28:16;4.78;;;1.60;;
75997;SDS011;64685;48.762;44.822;2023-05-02T05:33:20;6.65;;;2.10;;
75997;SDS011;64685;48.762;44.822;2023-05-02T05:38:23;4.00;;;1.77;;
75997;SDS011;64685;48.762;44.822;2023-05-02T05:43:27;5.97;;;2.03;;
75997;SDS011;64685;48.762;44.822;2023-05-02T05:48:30;12.45;;;2.05;;
75997;SDS011;64685;48.762;44.822;2023-05-02T05:53:34;3.30;;;1.40;;
75997;SDS011;64685;48.762;44.822;2023-05-02T05:58:38;5.72;;;1.63;;
75997;SDS011;64685;48.762;44.822;2023-05-02T06:03:42;4.05;;;1.50;;
75997;SDS011;64685;48.762;44.822;2023-05-02T06:08:46;5.00;;;1.65;;
75997;SDS011;64685;48.762;44.822;2023-05-02T06:13:52;3.60;;;1.30;;
75997;SDS011;64685;48.762;44.822;2023-05-02T06:18:56;6.85;;;1.88;;
75997;SDS011;64685;48.762;44.822;2023-05-02T06:23:59;8.55;;;1.77;;
75997;SDS011;64685;48.762;44.822;2023-05-02T06:29:01;4.65;;;1.30;;
75997;SDS011;64685;48.762;44.822;2023-05-02T06:34:04;11.15;;;2.83;;
75997;SDS011;64685;48.762;44.822;2023-05-02T06:39:07;4.30;;;1.50;;
75997;SDS011;64685;48.762;44.822;2023-05-02T06:44:10;3.92;;;1.40;;
75997;SDS011;64685;48.762;44.822;2023-05-02T06:54:14;4.90;;;1.15;;
75997;SDS011;64685;48.762;44.822;2023-05-02T06:59:17;3.42;;;1.38;;
75997;SDS011;64685;48.762;44.822;2023-05-02T07:04:20;9.07;;;1.60;;
75997;SDS011;64685;48.762;44.822;2023-05-02T07:09:22;6.43;;;1.98;;
75997;SDS011;64685;48.762;44.822;2023-05-02T07:14:25;9.93;;;3.15;;
75997;SDS011;64685;48.762;44.822;2023-05-02T07:19:28;4.00;;;1.38;;
75997;SDS011;64685;48.762;44.822;2023-05-02T07:24:32;3.22;;;1.17;;
75997;SDS011;64685;48.762;44.822;2023-05-02T07:29:35;2.97;;;1.08;;
75997;SDS011;64685;48.762;44.822;2023-05-02T07:34:38;5.45;;;1.55;;
75997;SDS011;64685;48.762;44.822;2023-05-02T07:39:42;7.13;;;2.28;;
75997;SDS011;64685;48.762;44.822;2023-05-02T07:44:44;6.38;;;2.53;;
75997;SDS011;64685;48.762;44.822;2023-05-02T07:49:50;4.72;;;1.75;;
75997;SDS011;64685;48.762;44.822;2023-05-02T07:54:53;6.40;;;2.00;;
75997;SDS011;64685;48.762;44.822;2023-05-02T07:59:56;6.97;;;1.73;;
75997;SDS011;64685;48.762;44.822;2023-05-02T08:04:59;4.88;;;1.75;;
75997;SDS011;64685;48.762;44.822;2023-05-02T08:10:02;8.20;;;1.50;;
75997;SDS011;64685;48.762;44.822;2023-05-02T08:15:05;3.60;;;1.20;;
75997;SDS011;64685;48.762;44.822;2023-05-02T08:20:09;3.35;;;1.20;;
75997;SDS011;64685;48.762;44.822;2023-05-02T08:30:14;4.97;;;1.77;;
75997;SDS011;64685;48.762;44.822;2023-05-02T08:40:19;2.97;;;0.80;;
75997;SDS011;64685;48.762;44.822;2023-05-02T08:45:42;8.40;;;1.58;;
75997;SDS011;64685;48.762;44.822;2023-05-02T08:50:46;8.20;;;2.22;;
75997;SDS011;64685;48.762;44.822;2023-05-02T08:55:50;8.27;;;1.92;;
75997;SDS011;64685;48.762;44.822;2023-05-02T09:00:53;3.10;;;1.20;;
75997;SDS011;64685;48.762;44.822;2023-05-02T09:06:07;8.75;;;1.58;;
75997;SDS011;64685;48.762;44.822;2023-05-02T09:11:18;3.08;;;1.33;;
75997;SDS011;64685;48.762;44.822;2023-05-02T09:21:25;4.25;;;1.40;;
75997;SDS011;64685;48.762;44.822;2023-05-02T09:26:37;5.68;;;1.45;;
75997;SDS011;64685;48.762;44.822;2023-05-02T09:31:41;5.22;;;1.55;;
75997;SDS011;64685;48.762;44.822;2023-05-02T09:36:57;9.93;;;2.28;;
75997;SDS011;64685;48.762;44.822;2023-05-02T09:42:00;4.32;;;1.38;;
75997;SDS011;64685;48.762;44.822;2023-05-02T09:47:03;15.77;;;2.10;;
75997;SDS011;64685;48.762;44.822;2023-05-02T09:57:14;3.25;;;1.10;;
75997;SDS011;64685;48.762;44.822;2023-05-02T10:02:17;5.57;;;1.88;;
75997;SDS011;64685;48.762;44.822;2023-05-02T10:07:23;6.90;;;1.60;;
75997;SDS011;64685;48.762;44.822;2023-05-02T10:12:27;9.73;;;2.42;;
75997;SDS011;64685;48.762;44.822;2023-05-02T10:17:32;6.70;;;2.38;;
75997;SDS011;64685;48.762;44.822;2023-05-02T10:22:47;7.82;;;2.20;;
75997;SDS011;64685;48.762;44.822;2023-05-02T10:27:51;12.10;;;2.47;;
75997;SDS011;64685;48.762;44.822;2023-05-02T10:32:54;6.75;;;2.10;;
75997;SDS011;64685;48.762;44.822;2023-05-02T10:38:01;9.02;;;2.40;;
75997;SDS011;64685;48.762;44.822;2023-05-02T10:43:04;7.30;;;2.45;;
75997;SDS011;64685;48.762;44.822;2023-05-02T10:48:11;7.75;;;2.15;;
75997;SDS011;64685;48.762;44.822;2023-05-02T10:58:27;5.70;;;1.85;;
75997;SDS011;64685;48.762;44.822;2023-05-02T11:09:31;7.75;;;2.22;;
75997;SDS011;64685;48.762;44.822;2023-05-02T11:24:39;6.32;;;1.90;;
75997;SDS011;64685;48.762;44.822;2023-05-02T11:29:52;3.72;;;1.48;;
75997;SDS011;64685;48.762;44.822;2023-05-02T11:40:13;6.35;;;1.80;;
75997;SDS011;64685;48.762;44.822;2023-05-02T11:45:16;4.78;;;1.70;;
75997;SDS011;64685;48.762;44.822;2023-05-02T11:50:20;4.50;;;1.52;;
75997;SDS011;64685;48.762;44.822;2023-05-02T11:55:23;6.32;;;2.20;;
75997;SDS011;64685;48.762;44.822;2023-05-02T12:00:26;6.43;;;2.30;;
75997;SDS011;64685;48.762;44.822;2023-05-02T12:05:29;5.72;;;2.60;;
75997;SDS011;64685;48.762;44.822;2023-05-02T12:10:36;6.53;;;2.63;;
75997;SDS011;64685;48.762;44.822;2023-05-02T12:15:38;9.82;;;3.63;;
75997;SDS011;64685;48.762;44.822;2023-05-02T12:20:41;8.13;;;3.78;;
75997;SDS011;64685;48.762;44.822;2023-05-02T12:25:44;8.40;;;3.45;;
75997;SDS011;64685;48.762;44.822;2023-05-02T12:30:47;8.02;;;3.20;;
75997;SDS011;64685;48.762;44.822;2023-05-02T12:35:51;9.48;;;3.78;;
75997;SDS011;64685;48.762;44.822;2023-05-02T12:40:54;8.57;;;3.38;;
75997;SDS011;64685;48.762;44.822;2023-05-02T12:46:09;7.57;;;3.30;;
75997;SDS011;64685;48.762;44.822;2023-05-02T12:51:22;8.52;;;3.92;;
75997;SDS011;64685;48.762;44.822;2023-05-02T12:56:25;7.22;;;3.30;;
75997;SDS011;64685;48.762;44.822;2023-05-02T13:01:33;8.50;;;3.17;;
75997;SDS011;64685;48.762;44.822;2023-05-02T13:06:36;8.30;;;3.55;;
75997;SDS011;64685;48.762;44.822;2023-05-02T13:11:39;9.70;;;3.40;;
75997;SDS011;64685;48.762;44.822;2023-05-02T13:16:41;10.73;;;4.47;;
75997;SDS011;64685;48.762;44.822;2023-05-02T13:21:44;8.05;;;3.67;;
75997;SDS011;64685;48.762;44.822;2023-05-02T13:26:46;7.75;;;2.90;;
75997;SDS011;64685;48.762;44.822;2023-05-02T13:31:49;7.65;;;3.00;;
75997;SDS011;64685;48.762;44.822;2023-05-02T13:36:51;6.82;;;2.80;;
75997;SDS011;64685;48.762;44.822;2023-05-02T13:41:54;7.50;;;3.50;;
75997;SDS011;64685;48.762;44.822;2023-05-02T13:46:57;7.55;;;3.40;;
75997;SDS011;64685;48.762;44.822;2023-05-02T13:51:59;8.82;;;3.38;;
75997;SDS011;64685;48.762;44.822;2023-05-02T13:57:02;7.40;;;3.38;;
75997;SDS011;64685;48.762;44.822;2023-05-02T14:02:05;8.65;;;3.47;;
75997;SDS011;64685;48.762;44.822;2023-05-02T14:07:09;7.82;;;3.40;;
75997;SDS011;64685;48.762;44.822;2023-05-02T14:12:12;9.13;;;3.55;;
75997;SDS011;64685;48.762;44.822;2023-05-02T14:17:14;7.97;;;3.45;;
75997;SDS011;64685;48.762;44.822;2023-05-02T14:22:17;10.95;;;3.10;;
75997;SDS011;64685;48.762;44.822;2023-05-02T14:27:20;8.38;;;2.78;;
75997;SDS011;64685;48.762;44.822;2023-05-02T14:32:22;6.82;;;2.75;;
75997;SDS011;64685;48.762;44.822;2023-05-02T14:37:25;10.35;;;3.15;;
75997;SDS011;64685;48.762;44.822;2023-05-02T14:42:27;9.60;;;3.17;;
75997;SDS011;64685;48.762;44.822;2023-05-02T14:47:30;10.60;;;2.65;;
75997;SDS011;64685;48.762;44.822;2023-05-02T14:52:33;7.38;;;2.80;;
75997;SDS011;64685;48.762;44.822;2023-05-02T14:57:35;8.60;;;2.78;;
75997;SDS011;64685;48.762;44.822;2023-05-02T15:02:38;7.25;;;2.97;;
75997;SDS011;64685;48.762;44.822;2023-05-02T15:07:40;10.85;;;3.20;;
75997;SDS011;64685;48.762;44.822;2023-05-02T15:12:43;6.03;;;2.58;;
75997;SDS011;64685;48.762;44.822;2023-05-02T15:17:47;5.65;;;2.58;;
75997;SDS011;64685;48.762;44.822;2023-05-02T15:22:50;9.68;;;2.95;;
75997;SDS011;64685;48.762;44.822;2023-05-02T15:27:53;8.20;;;3.08;;
75997;SDS011;64685;48.762;44.822;2023-05-02T15:32:55;8.30;;;2.58;;
75997;SDS011;64685;48.762;44.822;2023-05-02T15:37:58;6.40;;;2.60;;
75997;SDS011;64685;48.762;44.822;2023-05-02T15:43:00;8.93;;;2.92;;
75997;SDS011;64685;48.762;44.822;2023-05-02T15:48:03;7.68;;;2.67;;
75997;SDS011;64685;48.762;44.822;2023-05-02T15:53:05;6.15;;;2.70;;
75997;SDS011;64685;48.762;44.822;2023-05-02T15:58:08;7.53;;;3.05;;
75997;SDS011;64685;48.762;44.822;2023-05-02T16:03:11;6.05;;;2.90;;
75997;SDS011;64685;48.762;44.822;2023-05-02T16:08:14;7.60;;;2.85;;
75997;SDS011;64685;48.762;44.822;2023-05-02T16:13:17;9.00;;;3.13;;
75997;SDS011;64685;48.762;44.822;2023-05-02T16:18:19;9.00;;;3.08;;
75997;SDS011;64685;48.762;44.822;2023-05-02T16:28:27;8.25;;;3.00;;
75997;SDS011;64685;48.762;44.822;2023-05-02T16:33:29;8.75;;;3.10;;
75997;SDS011;64685;48.762;44.822;2023-05-02T16:38:32;8.90;;;3.22;;
75997;SDS011;64685;48.762;44.822;2023-05-02T16:43:35;8.05;;;3.00;;
75997;SDS011;64685;48.762;44.822;2023-05-02T16:48:38;7.20;;;3.00;;
75997;SDS011;64685;48.762;44.822;2023-05-02T16:53:41;6.97;;;2.88;;
75997;SDS011;64685;48.762;44.822;2023-05-02T16:58:44;8.07;;;2.92;;
75997;SDS011;64685;48.762;44.822;2023-05-02T17:03:47;9.07;;;2.80;;
75997;SDS011;64685;48.762;44.822;2023-05-02T17:08:50;8.20;;;3.50;;
75997;SDS011;64685;48.762;44.822;2023-05-02T17:13:52;7.40;;;3.20;;
75997;SDS011;64685;48.762;44.822;2023-05-02T17:18:55;8.90;;;3.53;;
75997;SDS011;64685;48.762;44.822;2023-05-02T17:23:58;9.38;;;3.42;;
75997;SDS011;64685;48.762;44.822;2023-05-02T17:29:01;8.43;;;3.22;;
75997;SDS011;64685;48.762;44.822;2023-05-02T17:34:03;7.25;;;3.35;;
75997;SDS011;64685;48.762;44.822;2023-05-02T17:39:06;8.23;;;2.80;;
75997;SDS011;64685;48.762;44.822;2023-05-02T17:44:09;7.88;;;2.75;;
75997;SDS011;64685;48.762;44.822;2023-05-02T17:49:12;10.40;;;3.38;;
75997;SDS011;64685;48.762;44.822;2023-05-02T17:54:14;8.45;;;3.50;;
75997;SDS011;64685;48.762;44.822;2023-05-02T17:59:17;9.02;;;3.78;;
75997;SDS011;64685;48.762;44.822;2023-05-02T18:04:20;8.98;;;3.85;;
75997;SDS011;64685;48.762;44.822;2023-05-02T18:09:23;8.43;;;3.78;;
75997;SDS011;64685;48.762;44.822;2023-05-02T18:14:25;7.93;;;3.20;;
75997;SDS011;64685;48.762;44.822;2023-05-02T18:19:28;9.30;;;3.70;;
75997;SDS011;64685;48.762;44.822;2023-05-02T18:24:30;11.00;;;3.60;;
75997;SDS011;64685;48.762;44.822;2023-05-02T18:29:34;8.13;;;3.63;;
75997;SDS011;64685;48.762;44.822;2023-05-02T18:34:37;8.50;;;3.65;;
75997;SDS011;64685;48.762;44.822;2023-05-02T18:39:40;9.30;;;3.58;;
75997;SDS011;64685;48.762;44.822;2023-05-02T18:44:42;7.93;;;3.88;;
75997;SDS011;64685;48.762;44.822;2023-05-02T18:49:45;7.53;;;3.00;;
75997;SDS011;64685;48.762;44.822;2023-05-02T18:54:48;7.25;;;2.63;;
75997;SDS011;64685;48.762;44.822;2023-05-02T18:59:50;8.90;;;2.90;;
75997;SDS011;64685;48.762;44.822;2023-05-02T19:04:53;9.23;;;3.67;;
75997;SDS011;64685;48.762;44.822;2023-05-02T19:09:56;6.55;;;2.80;;
75997;SDS011;64685;48.762;44.822;2023-05-02T19:14:58;9.02;;;2.92;;
75997;SDS011;64685;48.762;44.822;2023-05-02T19:20:02;6.75;;;2.80;;
75997;SDS011;64685;48.762;44.822;2023-05-02T19:25:06;7.93;;;2.97;;
75997;SDS011;64685;48.762;44.822;2023-05-02T19:30:10;6.07;;;2.70;;
75997;SDS011;64685;48.762;44.822;2023-05-02T19:35:14;6.95;;;2.85;;
75997;SDS011;64685;48.762;44.822;2023-05-02T19:40:18;7.75;;;3.05;;
75997;SDS011;64685;48.762;44.822;2023-05-02T19:45:20;6.85;;;2.40;;
75997;SDS011;64685;48.762;44.822;2023-05-02T19:50:24;5.53;;;2.47;;
75997;SDS011;64685;48.762;44.822;2023-05-02T19:55:27;6.20;;;2.42;;
75997;SDS011;64685;48.762;44.822;2023-05-02T20:00:29;5.07;;;2.25;;
75997;SDS011;64685;48.762;44.822;2023-05-02T20:05:32;6.55;;;2.33;;
75997;SDS011;64685;48.762;44.822;2023-05-02T20:10:35;7.40;;;2.67;;
75997;SDS011;64685;48.762;44.822;2023-05-02T20:15:37;5.80;;;2.47;;
75997;SDS011;64685;48.762;44.822;2023-05-02T20:20:40;6.63;;;2.60;;
75997;SDS011;64685;48.762;44.822;2023-05-02T20:25:43;5.88;;;2.45;;
75997;SDS011;64685;48.762;44.822;2023-05-02T20:30:45;4.55;;;2.10;;
75997;SDS011;64685;48.762;44.822;2023-05-02T20:35:54;5.93;;;2.42;;
75997;SDS011;64685;48.762;44.822;2023-05-02T20:40:57;6.45;;;2.88;;
75997;SDS011;64685;48.762;44.822;2023-05-02T20:46:07;6.55;;;2.30;;
75997;SDS011;64685;48.762;44.822;2023-05-02T20:51:10;6.75;;;2.53;;
75997;SDS011;64685;48.762;44.822;2023-05-02T20:56:13;4.88;;;2.00;;
75997;SDS011;64685;48.762;44.822;2023-05-02T21:01:16;4.80;;;1.98;;
75997;SDS011;64685;48.762;44.822;2023-05-02T21:06:18;4.50;;;1.80;;
75997;SDS011;64685;48.762;44.822;2023-05-02T21:11:24;4.43;;;1.73;;
75997;SDS011;64685;48.762;44.822;2023-05-02T21:16:27;3.70;;;1.50;;
75997;SDS011;64685;48.762;44.822;2023-05-02T21:21:29;4.85;;;1.48;;
75997;SDS011;64685;48.762;44.822;2023-05-02T21:26:32;3.42;;;1.52;;
75997;SDS011;64685;48.762;44.822;2023-05-02T21:31:35;5.55;;;1.88;;
75997;SDS011;64685;48.762;44.822;2023-05-02T21:36:40;4.68;;;1.67;;
75997;SDS011;64685;48.762;44.822;2023-05-02T21:41:44;3.22;;;1.33;;
75997;SDS011;64685;48.762;44.822;2023-05-02T21:46:46;3.28;;;1.50;;
75997;SDS011;64685;48.762;44.822;2023-05-02T21:51:49;4.00;;;1.27;;
75997;SDS011;64685;48.762;44.822;2023-05-02T21:56:52;3.20;;;1.38;;
75997;SDS011;64685;48.762;44.822;2023-05-02T22:01:55;4.05;;;1.38;;
75997;SDS011;64685;48.762;44.822;2023-05-02T22:06:58;2.55;;;1.23;;
75997;SDS011;64685;48.762;44.822;2023-05-02T22:12:00;2.72;;;1.20;;
75997;SDS011;64685;48.762;44.822;2023-05-02T22:17:03;3.17;;;1.10;;
75997;SDS011;64685;48.762;44.822;2023-05-02T22:22:06;3.58;;;1.30;;
75997;SDS011;64685;48.762;44.822;2023-05-02T22:27:09;2.88;;;1.13;;
75997;SDS011;64685;48.762;44.822;2023-05-02T22:32:11;3.28;;;1.20;;
75997;SDS011;64685;48.762;44.822;2023-05-02T22:37:14;2.15;;;0.93;;
75997;SDS011;64685;48.762;44.822;2023-05-02T22:42:17;1.58;;;0.73;;
75997;SDS011;64685;48.762;44.822;2023-05-02T22:47:19;2.90;;;1.00;;
75997;SDS011;64685;48.762;44.822;2023-05-02T22:52:22;3.25;;;1.05;;
75997;SDS011;64685;48.762;44.822;2023-05-02T22:57:28;1.83;;;0.80;;
75997;SDS011;64685;48.762;44.822;2023-05-02T23:02:30;2.28;;;0.75;;
75997;SDS011;64685;48.762;44.822;2023-05-02T23:07:33;4.65;;;0.90;;
75997;SDS011;64685;48.762;44.822;2023-05-02T23:12:36;2.15;;;0.90;;
75997;SDS011;64685;48.762;44.822;2023-05-02T23:17:38;2.30;;;0.85;;
75997;SDS011;64685;48.762;44.822;2023-05-02T23:22:42;2.38;;;0.82;;
75997;SDS011;64685;48.762;44.822;2023-05-02T23:27:46;2.05;;;1.02;;
75997;SDS011;64685;48.762;44.822;2023-05-02T23:32:48;3.20;;;0.95;;
75997;SDS011;64685;48.762;44.822;2023-05-02T23:37:52;0.98;;;0.75;;
75997;SDS011;64685;48.762;44.822;2023-05-02T23:42:55;2.45;;;0.80;;
75997;SDS011;64685;48.762;44.822;2023-05-02T23:47:57;2.75;;;1.00;;
75997;SDS011;64685;48.762;44.822;2023-05-02T23:53:00;0.98;;;0.50;;
75997;SDS011;64685;48.762;44.822;2023-05-02T23:58:03;3.15;;;0.90;;
